Latest Coastal Weather Observations for Lombadina

IDW60701

Issued at 1:33 am WST Thursday 3 September 2026 (issued every 10 minutes, with the page automatically refreshed every 10 minutes)

About coastal observations | Map of coastal stations | Coastal observations for WA | Marine services | Other Formats
Station Details ID: 503016 Name: LOMBADINA AIRSTRIP Lat: -16.52 Lon: 122.92 Height: 41.93 m
Data from the previous 72 hours. | See also: Recent months for locations in Western Australia
Date/Time
WST
Wind Sea
Height
m
Swell Vis
km
Cloud Weather Temp
°C
Press
MSL
hPa
Rain since
9am
mm
Dir  Spd
kts
Gust
kts
Height
m
Period
s
Dir
03/01:30am WNW 6 9 - - - - 10 Cloudy - 24.9 1015.5 0.0
03/01:00am WNW 6 8 - - - - 10 Cloudy - 24.9 1015.6 0.0
03/12:30am W 7 9 - - - - 10 Cloudy - 24.7 1015.6 0.0
03/12:00am WNW 7 9 - - - - 10 Mostly cloudy - 24.5 1015.7 0.0
 
Date/Time
WST
Wind Sea
Height
m
Swell Vis
km
Cloud Weather Temp
°C
Press
MSL
hPa
Rain since
9am
mm
Dir  Spd
kts
Gust
kts
Height
m
Period
s
Dir
02/11:30pm W 6 7 - - - - 10 Partly cloudy - 23.8 1015.6 0.0
02/11:00pm WSW 6 9 - - - - 10 Partly cloudy - 24.1 1015.8 0.0
02/10:30pm W 6 8 - - - - 10 Partly cloudy - 24.0 1016.0 0.0
02/10:00pm W 6 9 - - - - 10 Partly cloudy - 24.0 1016.3 0.0
02/09:30pm W 6 8 - - - - 10 - - 23.9 1016.2 0.0
02/09:00pm W 5 8 - - - - 10 - - 24.2 1016.2 0.0
02/08:30pm W 5 8 - - - - 10 - - 24.4 1016.2 0.0
02/08:00pm W 6 9 - - - - 10 - - 24.6 1016.1 0.0
02/07:30pm WNW 6 8 - - - - 10 - - 24.9 1016.0 0.0
02/07:00pm WNW 8 11 - - - - 10 - - 25.4 1015.7 0.0
02/06:30pm WNW 7 8 - - - - 10 - - 25.4 1015.7 0.0
02/06:00pm NW 7 9 - - - - 10 - - 25.6 1015.5 0.0
02/05:30pm NW 8 11 - - - - 10 - - 26.1 1015.2 0.0
02/05:00pm NW 10 13 - - - - 10 - - 26.8 1014.9 0.0
02/04:30pm NW 10 13 - - - - 10 - - 27.4 1014.8 0.0
02/04:00pm NW 9 12 - - - - 10 - - 28.0 1014.6 0.0
02/03:30pm NW 11 13 - - - - 10 - - 28.0 1014.4 0.0
02/03:00pm NW 11 13 - - - - 10 - - 28.8 1014.5 0.0
02/02:30pm NW 10 13 - - - - 10 - - 29.3 1014.5 0.0
02/02:00pm NW 9 13 - - - - 10 - - 29.5 1014.8 0.0
02/01:30pm NW 9 11 - - - - 10 - - 29.9 1015.1 0.0
02/01:00pm NW 10 13 - - - - 10 - - 29.2 1015.5 0.0
02/12:30pm WNW 8 11 - - - - 10 - - 29.7 1015.9 0.0
02/12:00pm NW 9 11 - - - - 10 - - 29.4 1016.4 0.0
02/11:30am NW 9 12 - - - - 10 - - 29.9 1016.9 0.0
02/11:00am NW 8 12 - - - - 10 - - 30.3 1017.3 0.0
02/10:30am WNW 9 11 - - - - 10 - - 30.6 1017.8 0.0
02/10:00am WNW 7 10 - - - - 10 - - 31.3 1018.0 0.0
02/09:30am NW 7 11 - - - - 10 - - 31.1 1017.8 0.0
02/09:00am NW 6 7 - - - - 10 - - 29.9 1017.9 0.0
02/08:30am NW 3 5 - - - - 10 - - 28.2 1017.8 0.0
02/08:00am NNW 3 4 - - - - 10 - - 26.0 1017.7 0.0
02/07:30am N 3 4 - - - - 10 - - 24.8 1017.7 0.0
02/07:00am NNE 3 5 - - - - 10 - - 23.8 1017.6 0.0
02/06:30am NNE 4 5 - - - - 10 - - 22.5 1017.4 0.0
02/06:00am NNE 5 6 - - - - 10 - - 22.1 1017.2 0.0
02/05:30am NE 4 5 - - - - 10 - - 20.9 1016.9 0.0
02/05:25am NNE 4 5 - - - - 10 Mostly clear - 21.0 1016.8 0.0
02/05:02am NNE 3 4 - - - - 4 Partly cloudy - 21.1 1016.6 0.0
02/05:00am NNE 3 4 - - - - 7 Partly cloudy - 21.2 1016.6 0.0
02/04:30am NNE 4 5 - - - - 10 - - 21.7 1016.3 0.0
02/04:24am NNE 4 5 - - - - 10 - - 21.3 1016.2 0.0
02/04:00am CALM 0 0 - - - - 0.8 - - 20.8 1016.0 0.0
02/03:34am CALM 0 0 - - - - 4 - - 20.5 1015.9 0.0
02/03:30am CALM 0 0 - - - - 10 - - 20.8 1015.9 0.0
02/03:17am CALM 0 0 - - - - 10 - - 20.8 1015.9 0.0
02/03:05am CALM 0 0 - - - - 2 Mostly clear - 20.9 1015.9 0.0
02/03:00am CALM 0 0 - - - - 0.5 Mostly clear - 21.0 1015.9 0.0
02/02:45am CALM 0 3 - - - - 5 Partly cloudy - 21.0 1015.8 0.0
02/02:35am NNE 3 4 - - - - 10 Partly cloudy - 21.1 1015.8 0.0
02/02:34am NNE 3 4 - - - - 10 Partly cloudy - 21.1 1015.8 0.0
02/02:30am NNE 2 4 - - - - 10 Partly cloudy - 21.1 1015.8 0.0
02/02:09am CALM 0 0 - - - - 3 - - 21.2 1015.6 0.0
02/02:04am CALM 0 0 - - - - 10 - - 21.4 1015.6 0.0
02/02:00am CALM 0 0 - - - - 10 - - 21.4 1015.6 0.0
02/01:33am CALM 0 3 - - - - 5 Partly cloudy - 21.4 1015.7 0.0
02/01:30am NNE 1 3 - - - - 6 Partly cloudy - 21.5 1015.7 0.0
02/01:00am CALM 0 0 - - - - 6 - - 21.6 1015.9 0.0
02/12:30am CALM 0 0 - - - - 10 - - 21.8 1016.0 0.0
02/12:00am NNW 1 3 - - - - 10 - - 22.6 1016.1 0.0
 
Date/Time
WST
Wind Sea
Height
m
Swell Vis
km
Cloud Weather Temp
°C
Press
MSL
hPa
Rain since
9am
mm
Dir  Spd
kts
Gust
kts
Height
m
Period
s
Dir
01/11:30pm WSW 4 5 - - - - 10 - - 22.9 1016.2 0.0
01/11:00pm WSW 5 7 - - - - 10 - - 23.2 1016.2 0.0
01/10:30pm W 5 6 - - - - 10 - - 23.6 1016.2 0.0
01/10:00pm W 5 6 - - - - 10 - - 23.9 1016.2 0.0
01/09:30pm W 6 9 - - - - 10 - - 24.2 1016.2 0.0
01/09:00pm W 6 8 - - - - 10 - - 24.3 1016.2 0.0
01/08:30pm W 6 8 - - - - 10 - - 24.4 1016.0 0.0
01/08:00pm WNW 6 8 - - - - 10 - - 24.6 1015.7 0.0
01/07:30pm WNW 6 8 - - - - 10 - - 24.7 1015.5 0.0
01/07:00pm WNW 6 8 - - - - 10 - - 25.0 1015.3 0.0
01/06:30pm WNW 7 9 - - - - 10 - - 25.3 1015.1 0.0
01/06:00pm WNW 9 13 - - - - 10 - - 25.7 1014.9 0.0
01/05:30pm NW 8 11 - - - - 10 - - 26.3 1014.8 0.0
01/05:00pm NW 10 13 - - - - 10 - - 27.0 1014.7 0.0
01/04:30pm NW 9 11 - - - - 10 - - 27.8 1014.6 0.0
01/04:00pm NW 9 13 - - - - 10 - - 28.0 1014.5 0.0
01/03:30pm NW 10 12 - - - - 10 - - 28.2 1014.5 0.0
01/03:00pm NW 10 13 - - - - 10 - - 29.0 1014.5 0.0
01/02:30pm NW 11 14 - - - - 10 - - 29.4 1014.6 0.0
01/02:00pm NNW 11 14 - - - - 10 - - 30.7 1014.7 0.0
01/01:30pm NNE 6 10 - - - - 10 - - 32.7 1015.0 0.0
01/01:00pm NW 6 8 - - - - 10 - - 31.5 1015.5 0.0
01/12:30pm WNW 9 11 - - - - 10 - - 30.7 1015.9 0.0
01/12:00pm ENE 7 9 - - - - 10 - - 31.6 1016.2 0.0
01/11:30am E 7 10 - - - - 10 - - 30.4 1016.5 0.0
01/11:00am E 8 11 - - - - 10 - - 30.6 1016.9 0.0
01/10:30am E 8 11 - - - - 10 - - 30.0 1017.2 0.0
01/10:00am ESE 7 11 - - - - 10 - - 29.4 1017.6 0.0
01/09:30am E 9 14 - - - - 10 - - 29.3 1017.9 0.0
01/09:00am SE 7 12 - - - - 10 - - 28.4 1017.9 0.0
01/08:30am SSE 7 10 - - - - 10 - - 27.4 1017.8 0.0
01/08:00am SE 5 8 - - - - 10 - - 26.3 1017.9 0.0
01/07:30am S 1 3 - - - - 10 - - 24.7 1017.9 0.0
01/07:00am SE 3 4 - - - - 10 - - 22.4 1017.7 0.0
01/06:30am CALM 0 0 - - - - 10 - - 19.3 1017.3 0.0
01/06:00am CALM 0 0 - - - - 10 - - 18.7 1017.1 0.0
01/05:30am SSE 2 3 - - - - 10 - - 19.4 1016.9 0.0
01/05:00am SE 4 6 - - - - 10 - - 19.9 1016.8 0.0
01/04:30am ESE 5 6 - - - - 10 - - 19.6 1016.6 0.0
01/04:00am CALM 0 2 - - - - 10 - - 19.3 1016.2 0.0
01/03:30am CALM 0 2 - - - - 10 - - 20.0 1016.1 0.0
01/03:00am CALM 0 2 - - - - 10 - - 20.6 1016.1 0.0
01/02:30am SW 3 5 - - - - 10 - - 21.7 1016.1 0.0
01/02:00am SW 5 7 - - - - 10 - - 22.5 1016.1 0.0
01/01:30am SSW 5 7 - - - - 10 - - 22.6 1016.2 0.0
01/01:00am SW 4 6 - - - - 10 - - 22.6 1016.3 0.0
01/12:30am SW 5 7 - - - - 10 - - 22.8 1016.4 0.0
01/12:00am SW 6 8 - - - - 10 - - 22.9 1016.8 0.0
 
Date/Time
WST
Wind Sea
Height
m
Swell Vis
km
Cloud Weather Temp
°C
Press
MSL
hPa
Rain since
9am
mm
Dir  Spd
kts
Gust
kts
Height
m
Period
s
Dir
31/11:30pm SW 5 7 - - - - 10 - - 23.1 1017.1 0.0
31/11:00pm SW 6 8 - - - - 10 - - 23.3 1017.2 0.0
31/10:30pm SW 6 8 - - - - 10 - - 23.5 1017.3 0.0
31/10:00pm SW 6 8 - - - - 10 - - 23.5 1017.3 0.0
31/09:30pm WSW 5 7 - - - - 10 - - 23.2 1017.2 0.0
31/09:00pm WSW 5 8 - - - - 10 - - 23.3 1017.2 0.0
31/08:30pm WSW 6 8 - - - - 10 - - 23.5 1017.2 0.0
31/08:00pm WSW 5 7 - - - - 10 - - 23.7 1017.2 0.0
31/07:30pm WSW 5 8 - - - - 10 - - 24.0 1017.1 0.0
31/07:00pm WSW 5 6 - - - - 10 - - 24.5 1016.9 0.0
31/06:30pm W 5 5 - - - - 10 - - 24.8 1016.6 0.0
31/06:00pm W 5 7 - - - - 10 - - 25.5 1016.3 0.0
31/05:30pm W 6 10 - - - - 10 - - 26.3 1016.0 0.0
31/05:00pm W 7 11 - - - - 10 - - 27.3 1015.9 0.0
31/04:30pm WNW 7 10 - - - - 10 - - 28.1 1015.8 0.0
31/04:00pm WNW 9 12 - - - - 10 - - 28.4 1015.6 0.0
31/03:30pm WNW 8 11 - - - - 10 - - 29.0 1015.6 0.0
31/03:00pm NW 9 11 - - - - 10 - - 29.3 1015.6 0.0
31/02:30pm NW 9 11 - - - - 10 - - 29.5 1015.8 0.0
31/02:00pm NW 10 11 - - - - 10 - - 29.6 1016.0 0.0
31/01:30pm NW 9 11 - - - - 10 - - 30.4 1016.2 0.0
31/01:00pm NW 9 12 - - - - 10 - - 30.4 1016.5 0.0
31/12:30pm NW 9 11 - - - - 10 - - 30.2 1016.8 0.0
31/12:00pm NW 8 11 - - - - 10 - - 29.9 1017.1 0.0
31/11:30am NW 9 12 - - - - 10 - - 30.0 1017.3 0.0
31/11:00am NW 10 12 - - - - 10 - - 31.2 1017.6 0.0
31/10:30am SE 3 7 - - - - 10 - - 32.7 1017.9 0.0
31/10:00am S 4 7 - - - - 10 - - 31.4 1018.4 0.0
31/09:30am SE 5 9 - - - - 10 - - 29.5 1018.8 0.0
31/09:00am SE 7 10 - - - - 10 - - 28.4 1018.9 0.0
31/08:30am SE 6 9 - - - - 10 - - 27.5 1018.9 0.0
31/08:00am SE 6 9 - - - - 10 - - 26.5 1018.9 0.0
31/07:30am ESE 6 9 - - - - 10 - - 24.8 1018.8 0.0
31/07:00am ESE 5 8 - - - - 10 - - 23.4 1018.5 0.0
31/06:30am ESE 5 7 - - - - 10 - - 21.9 1018.0 0.0
31/06:00am ESE 4 6 - - - - 10 - - 21.0 1017.5 0.0
31/05:30am ESE 5 6 - - - - 10 - - 21.6 1017.3 0.0
31/05:00am SE 5 7 - - - - 10 - - 21.6 1017.0 0.0
31/04:30am ESE 5 7 - - - - 10 - - 21.3 1016.9 0.0
31/04:00am ESE 5 7 - - - - 10 - - 21.1 1016.6 0.0
31/03:30am S 4 6 - - - - 10 - - 20.1 1016.4 0.0
31/03:00am S 4 6 - - - - 10 - - 20.9 1016.4 0.0
31/02:30am S 4 5 - - - - 10 - - 19.8 1016.4 0.0
31/02:00am SSW 5 6 - - - - 10 - - 20.6 1016.3 0.0

Other formats

Comma delimited format used in spreadsheet applications
http://www.bom.gov.au/fwo/IDW60701/IDW60701.99206.axf

JavaScript Object Notation format (JSON) in row-major order
http://www.bom.gov.au/fwo/IDW60701/IDW60701.99206.json

Data quality

Most of these data are generated automatically and are frequently updated. Quality checks on data are not normally performed. It is possible for incorrect values to appear. Refer to information at About Latest Weather Observations and please check the disclaimer before using these data.